Matadepera, Spain
Current Conditions -  °F | °C
As of 5:00 PM on Friday 21 Nov 2014 (Local Time) from LELL Reporting Station
Few Clouds Few Clouds  
Wind Chill: 64°   Ceiling: Unl
Heat Index: 64°   Visibility: 6mi
Dew Point: 59°   Wind: 3mph
Humidity: 83%   Direction: 130°SE
Pressure: 30.06"   Gusts: NA
Location:  41.6°N, 2.03°E
Report Text: LELL 211600Z 13003KT 9999 FEW020 18/15 Q1018
Loading
Personal Weather Stations






























Interactive Weather Map New forecast layout! Learn more

10-Day Weather Forecast

Advertisements
Track Severe Weather on mobile